createdAt,value
2018-09-11T00:02:12.585Z,5.87
2018-09-11T00:07:07.461Z,7.00
2018-09-11T00:12:02.368Z,6.03
2018-09-11T00:16:57.311Z,4.97
2018-09-11T00:21:52.222Z,8.17
2018-09-11T00:26:47.118Z,6.57
2018-09-11T00:31:42.166Z,8.23
2018-09-11T00:36:37.121Z,7.67
2018-09-11T00:41:31.989Z,6.33
2018-09-11T00:46:26.861Z,7.47
2018-09-11T00:51:21.736Z,7.17
2018-09-11T00:56:16.585Z,6.63
2018-09-11T01:01:11.558Z,5.77
2018-09-11T01:06:06.490Z,7.03
2018-09-11T01:11:01.358Z,5.90
2018-09-11T01:15:56.242Z,5.33
2018-09-11T01:20:51.197Z,8.27
2018-09-11T01:25:46.087Z,6.30
2018-09-11T01:30:41.046Z,5.23
2018-09-11T01:35:35.925Z,6.20
2018-09-11T01:40:30.836Z,6.00
2018-09-11T01:45:25.811Z,5.90
2018-09-11T01:50:20.687Z,6.80
2018-09-11T01:55:15.577Z,5.67
2018-09-11T02:00:20.273Z,5.93
2018-09-11T02:05:15.159Z,6.00
2018-09-11T02:10:09.976Z,6.47
2018-09-11T02:15:04.893Z,6.70
2018-09-11T02:19:59.711Z,5.90
2018-09-11T02:24:54.486Z,6.10
2018-09-11T02:29:49.251Z,7.70
2018-09-11T02:34:43.990Z,6.93
2018-09-11T02:39:38.879Z,6.17
2018-09-11T02:44:33.766Z,6.10
2018-09-11T02:49:28.618Z,6.50
2018-09-11T02:54:23.471Z,6.53
2018-09-11T02:59:18.397Z,5.73
2018-09-11T03:04:13.249Z,8.20
2018-09-11T03:09:08.265Z,6.17
2018-09-11T03:14:03.129Z,6.27
2018-09-11T03:18:58.003Z,6.47
2018-09-11T03:23:52.938Z,6.13
2018-09-11T03:28:47.934Z,5.93
2018-09-11T03:33:42.781Z,7.83
2018-09-11T03:38:37.673Z,6.13
2018-09-11T03:43:32.593Z,7.13
2018-09-11T03:48:27.437Z,7.37
2018-09-11T03:53:22.296Z,6.37
2018-09-11T03:58:18.241Z,6.50
2018-09-11T04:03:13.165Z,6.97
2018-09-11T04:08:08.030Z,7.23
2018-09-11T04:13:02.874Z,9.47
2018-09-11T04:17:57.801Z,9.47
2018-09-11T04:22:52.715Z,9.37
2018-09-11T04:27:47.579Z,5.80
2018-09-11T04:32:43.395Z,7.07
2018-09-11T04:37:38.241Z,9.67
2018-09-11T04:42:33.147Z,6.90
2018-09-11T04:47:28.179Z,7.10
2018-09-11T04:52:23.082Z,6.77
2018-09-11T04:57:17.989Z,8.03
2018-09-11T05:02:12.864Z,9.13
2018-09-11T05:07:08.079Z,8.03
2018-09-11T05:12:03.025Z,7.67
2018-09-11T05:16:57.858Z,7.83
2018-09-11T05:21:52.897Z,7.17
2018-09-11T05:26:47.790Z,6.50
2018-09-11T05:31:42.666Z,7.30
2018-09-11T05:36:37.570Z,6.00
2018-09-11T05:41:32.462Z,6.83
2018-09-11T05:46:27.294Z,7.83
2018-09-11T05:51:22.221Z,10.63
2018-09-11T05:56:17.057Z,7.87
2018-09-11T06:01:11.929Z,9.10
2018-09-11T06:06:06.834Z,8.77
2018-09-11T06:11:01.689Z,9.20
2018-09-11T06:15:56.434Z,9.17
2018-09-11T06:20:51.241Z,7.27
2018-09-11T06:25:46.111Z,9.30
2018-09-11T06:30:40.942Z,6.37
2018-09-11T06:35:35.857Z,7.13
2018-09-11T06:40:30.813Z,7.80
2018-09-11T06:45:25.723Z,7.30
2018-09-11T06:50:20.638Z,6.83
2018-09-11T06:55:15.905Z,10.00
2018-09-11T07:00:10.840Z,8.00
2018-09-11T07:05:05.806Z,6.70
2018-09-11T07:10:00.673Z,13.97
2018-09-11T07:14:55.538Z,9.37
2018-09-11T07:19:50.549Z,7.90
2018-09-11T07:24:45.430Z,9.33
2018-09-11T07:29:40.387Z,7.90
2018-09-11T07:34:35.393Z,8.90
2018-09-11T07:39:30.278Z,10.50
2018-09-11T07:44:25.483Z,10.00
2018-09-11T07:49:20.310Z,10.20
2018-09-11T07:54:15.231Z,8.90
2018-09-11T07:59:10.162Z,12.53
2018-09-11T08:04:05.128Z,11.23
2018-09-11T08:09:00.066Z,10.77
2018-09-11T08:13:55.157Z,11.93
2018-09-11T08:18:50.020Z,10.40
2018-09-11T08:23:44.917Z,11.10
2018-09-11T08:28:39.850Z,9.37
2018-09-11T08:33:34.717Z,8.80
2018-09-11T08:38:29.481Z,8.60
2018-09-11T08:43:24.245Z,8.33
2018-09-11T08:48:19.073Z,7.60
2018-09-11T08:53:13.860Z,9.30
2018-09-11T08:58:08.671Z,8.87
2018-09-11T09:03:03.541Z,8.67
2018-09-11T09:07:58.396Z,11.63
2018-09-11T09:12:53.286Z,6.90
2018-09-11T09:17:48.185Z,10.53
2018-09-11T09:22:43.024Z,7.73
2018-09-11T09:27:37.973Z,7.77
2018-09-11T09:32:32.869Z,7.93
2018-09-11T09:37:27.885Z,9.10
2018-09-11T09:42:22.903Z,8.17
2018-09-11T09:47:17.834Z,10.80
2018-09-11T09:52:12.705Z,9.33
2018-09-11T09:57:07.625Z,9.90
2018-09-11T10:02:04.701Z,8.53
2018-09-11T10:06:59.732Z,7.80
2018-09-11T10:11:54.757Z,7.62
2018-09-11T10:16:49.619Z,7.87
2018-09-11T10:21:44.553Z,9.30
2018-09-11T10:26:39.436Z,8.53
2018-09-11T10:31:34.355Z,9.73
2018-09-11T10:36:29.300Z,9.25
2018-09-11T10:41:30.651Z,8.43
2018-09-11T10:46:25.427Z,7.65
2018-09-11T10:51:20.219Z,7.40
2018-09-11T10:56:15.087Z,9.83
2018-09-11T11:01:09.837Z,6.65
2018-09-11T11:06:04.672Z,6.30
2018-09-11T11:10:59.477Z,6.40
2018-09-11T11:15:54.249Z,5.65
2018-09-11T11:20:49.190Z,6.92
2018-09-11T11:25:44.057Z,6.40
2018-09-11T11:30:38.913Z,5.60
2018-09-11T11:35:33.768Z,6.45
2018-09-11T11:40:28.698Z,4.67
2018-09-11T11:45:23.732Z,5.12
2018-09-11T11:50:18.621Z,6.50
2018-09-11T11:55:13.620Z,4.92
2018-09-11T12:00:08.446Z,6.90
2018-09-11T12:05:03.327Z,8.30
2018-09-11T12:09:58.220Z,5.58
2018-09-11T12:14:52.986Z,7.70
2018-09-11T12:19:47.756Z,5.50
2018-09-11T12:24:42.519Z,4.70
2018-09-11T12:29:37.272Z,4.87
2018-09-11T12:34:32.025Z,6.28
2018-09-11T12:39:26.834Z,4.28
2018-09-11T12:44:21.740Z,5.17
2018-09-11T12:49:20.767Z,3.40
2018-09-11T12:54:15.562Z,3.30
2018-09-11T12:59:10.412Z,3.37
2018-09-11T13:04:05.346Z,2.80
2018-09-11T13:09:00.181Z,4.20
2018-09-11T13:13:54.967Z,5.37
2018-09-11T13:18:49.783Z,3.83
2018-09-11T13:23:47.425Z,4.00
2018-09-11T13:28:42.205Z,3.00
2018-09-11T13:33:37.037Z,3.02
2018-09-11T13:38:31.815Z,3.10
2018-09-11T13:43:26.690Z,4.03
2018-09-11T13:48:21.568Z,8.48
2018-09-11T13:53:16.418Z,7.00
2018-09-11T13:58:11.273Z,6.75
2018-09-11T14:03:06.242Z,8.08
2018-09-11T14:08:01.186Z,6.10
2018-09-11T14:12:56.080Z,5.10
2018-09-11T14:17:50.997Z,4.45
2018-09-11T14:22:45.831Z,7.28
2018-09-11T14:27:40.641Z,5.15
2018-09-11T14:32:35.478Z,5.35
2018-09-11T14:37:30.298Z,5.53
2018-09-11T14:42:25.086Z,7.08
2018-09-11T14:47:19.845Z,6.50
2018-09-11T14:52:14.661Z,4.80
2018-09-11T14:57:09.494Z,5.35
2018-09-11T15:02:04.289Z,4.97
2018-09-11T15:06:59.454Z,4.90
2018-09-11T15:11:54.343Z,5.67
2018-09-11T15:16:49.218Z,4.90
2018-09-11T15:21:44.122Z,6.53
2018-09-11T15:26:39.047Z,5.70
2018-09-11T15:31:33.921Z,4.87
2018-09-11T15:36:28.869Z,4.60
2018-09-11T15:41:23.732Z,4.25
2018-09-11T15:46:18.598Z,5.83
2018-09-11T15:51:13.466Z,5.62
2018-09-11T15:56:08.653Z,5.67
2018-09-11T16:01:03.614Z,6.30
2018-09-11T16:05:58.541Z,4.53
2018-09-11T16:10:53.450Z,4.42
2018-09-11T16:15:48.368Z,6.12
2018-09-11T16:20:43.228Z,5.28
2018-09-11T16:25:38.050Z,4.83
2018-09-11T16:30:32.900Z,4.87
2018-09-11T16:35:28.564Z,5.80
2018-09-11T16:40:23.371Z,5.33
2018-09-11T16:45:18.201Z,5.65
2018-09-11T16:50:13.024Z,7.40
2018-09-11T16:55:07.945Z,7.58
2018-09-11T17:00:02.801Z,5.15
2018-09-11T17:04:57.666Z,5.40
2018-09-11T17:09:52.453Z,5.03
2018-09-11T17:14:47.282Z,6.33
2018-09-11T17:19:42.520Z,4.47
2018-09-11T17:24:40.411Z,5.40
2018-09-11T17:29:35.322Z,5.70
2018-09-11T17:34:30.289Z,5.83
2018-09-11T17:39:25.196Z,5.67
2018-09-11T17:44:20.147Z,5.37
2018-09-11T17:49:15.137Z,6.43
2018-09-11T17:54:09.939Z,6.07
2018-09-11T17:59:05.371Z,7.10
2018-09-11T18:04:00.457Z,10.00
2018-09-11T18:08:55.673Z,6.67
2018-09-11T18:13:52.895Z,6.10
2018-09-11T18:18:47.860Z,9.13
2018-09-11T18:23:42.861Z,9.53
2018-09-11T18:28:37.747Z,5.87
2018-09-11T18:33:32.640Z,7.63
2018-09-11T18:38:27.543Z,7.67
2018-09-11T18:43:22.457Z,6.40
2018-09-11T18:48:17.408Z,7.53
2018-09-11T18:53:12.304Z,7.07
2018-09-11T18:58:07.339Z,8.27
2018-09-11T19:03:03.049Z,5.57
2018-09-11T19:07:58.386Z,5.20
2018-09-11T19:12:53.314Z,6.10
2018-09-11T19:17:48.121Z,6.20
2018-09-11T19:22:43.018Z,8.07
2018-09-11T19:27:37.894Z,7.93
2018-09-11T19:32:32.848Z,5.77
2018-09-11T19:37:27.729Z,7.87
2018-09-11T19:42:22.724Z,8.67
2018-09-11T19:47:17.594Z,5.60
2018-09-11T19:52:12.428Z,5.57
2018-09-11T19:57:07.380Z,4.60
2018-09-11T20:02:02.334Z,5.07
2018-09-11T20:06:57.281Z,5.27
2018-09-11T20:11:52.169Z,4.60
2018-09-11T20:16:47.188Z,4.87
2018-09-11T20:21:42.164Z,6.37
2018-09-11T20:26:37.102Z,5.43
2018-09-11T20:31:32.077Z,6.10
2018-09-11T20:36:27.017Z,5.63
2018-09-11T20:41:22.106Z,5.57
2018-09-11T20:46:17.100Z,6.00
2018-09-11T20:51:11.918Z,6.50
2018-09-11T20:56:06.791Z,7.33
2018-09-11T21:01:01.913Z,10.07
2018-09-11T21:05:56.812Z,7.83
2018-09-11T21:10:51.612Z,8.90
2018-09-11T21:15:46.437Z,7.97
2018-09-11T21:20:41.418Z,5.13
2018-09-11T21:25:36.199Z,5.27
2018-09-11T21:30:31.033Z,11.20
2018-09-11T21:35:25.839Z,5.60
2018-09-11T21:40:20.644Z,6.57
2018-09-11T21:45:15.414Z,5.23
2018-09-11T21:50:10.242Z,7.93
2018-09-11T21:55:05.101Z,6.00
2018-09-11T21:59:59.961Z,5.43
2018-09-11T22:04:54.762Z,8.07
2018-09-11T22:09:49.588Z,7.90
2018-09-11T22:14:44.447Z,6.10
2018-09-11T22:19:39.272Z,6.40
2018-09-11T22:24:34.090Z,7.53
2018-09-11T22:29:28.882Z,6.23
2018-09-11T22:34:23.676Z,8.60
2018-09-11T22:39:18.450Z,6.13
2018-09-11T22:44:13.235Z,5.73
2018-09-11T22:49:08.053Z,7.63
2018-09-11T22:54:02.852Z,6.37
2018-09-11T22:58:57.643Z,7.00
2018-09-11T23:03:52.468Z,7.90
2018-09-11T23:08:47.262Z,7.67
2018-09-11T23:13:42.153Z,6.57
2018-09-11T23:18:36.982Z,6.50
2018-09-11T23:23:31.773Z,6.43
2018-09-11T23:28:26.545Z,6.63
2018-09-11T23:33:21.337Z,6.20
2018-09-11T23:38:16.253Z,10.80
2018-09-11T23:43:11.207Z,8.40
2018-09-11T23:48:06.345Z,6.77
2018-09-11T23:53:01.275Z,7.57
2018-09-11T23:57:56.273Z,8.47
